sensor_id;sensor_type;location;lat;lon;timestamp;P1;durP1;ratioP1;P2;durP2;ratioP2
7033;SDS011;3558;53.176;10.412;2023-11-21T03:46:36;4.47;;;3.40;;
7033;SDS011;3558;53.176;10.412;2023-11-21T03:49:01;4.20;;;3.20;;
7033;SDS011;3558;53.176;10.412;2023-11-21T03:51:27;4.57;;;3.03;;
7033;SDS011;3558;53.176;10.412;2023-11-21T03:53:52;4.23;;;3.40;;
7033;SDS011;3558;53.176;10.412;2023-11-21T03:56:18;4.90;;;3.58;;
7033;SDS011;3558;53.176;10.412;2023-11-21T03:58:45;4.32;;;3.45;;
7033;SDS011;3558;53.176;10.412;2023-11-21T04:01:11;4.22;;;3.53;;
7033;SDS011;3558;53.176;10.412;2023-11-21T04:03:36;4.23;;;3.33;;
7033;SDS011;3558;53.176;10.412;2023-11-21T04:06:02;3.80;;;3.40;;
7033;SDS011;3558;53.176;10.412;2023-11-21T04:08:27;3.47;;;3.17;;
7033;SDS011;3558;53.176;10.412;2023-11-21T04:10:53;4.57;;;3.60;;
7033;SDS011;3558;53.176;10.412;2023-11-21T04:13:18;4.03;;;3.10;;
7033;SDS011;3558;53.176;10.412;2023-11-21T04:15:44;4.97;;;3.67;;
7033;SDS011;3558;53.176;10.412;2023-11-21T04:18:09;3.93;;;3.30;;
7033;SDS011;3558;53.176;10.412;2023-11-21T04:20:35;3.60;;;3.08;;
7033;SDS011;3558;53.176;10.412;2023-11-21T04:23:00;3.75;;;3.22;;
7033;SDS011;3558;53.176;10.412;2023-11-21T04:25:26;4.17;;;3.10;;
7033;SDS011;3558;53.176;10.412;2023-11-21T04:27:53;4.03;;;3.00;;
7033;SDS011;3558;53.176;10.412;2023-11-21T04:30:19;3.95;;;3.15;;
7033;SDS011;3558;53.176;10.412;2023-11-21T04:32:45;3.83;;;3.05;;
7033;SDS011;3558;53.176;10.412;2023-11-21T04:35:11;3.20;;;2.87;;
7033;SDS011;3558;53.176;10.412;2023-11-21T04:37:36;4.00;;;3.10;;
7033;SDS011;3558;53.176;10.412;2023-11-21T04:40:02;3.43;;;3.00;;
7033;SDS011;3558;53.176;10.412;2023-11-21T04:42:33;3.42;;;2.97;;
7033;SDS011;3558;53.176;10.412;2023-11-21T04:44:59;4.63;;;3.13;;
7033;SDS011;3558;53.176;10.412;2023-11-21T04:47:26;4.03;;;3.00;;
7033;SDS011;3558;53.176;10.412;2023-11-21T04:49:51;3.55;;;2.92;;
7033;SDS011;3558;53.176;10.412;2023-11-21T04:52:17;4.10;;;2.80;;
7033;SDS011;3558;53.176;10.412;2023-11-21T04:54:42;4.07;;;3.22;;
7033;SDS011;3558;53.176;10.412;2023-11-21T04:57:08;4.27;;;3.20;;
7033;SDS011;3558;53.176;10.412;2023-11-21T04:59:34;4.10;;;3.10;;
7033;SDS011;3558;53.176;10.412;2023-11-21T05:02:00;3.50;;;3.00;;
7033;SDS011;3558;53.176;10.412;2023-11-21T05:04:25;3.40;;;3.00;;
7033;SDS011;3558;53.176;10.412;2023-11-21T05:06:52;3.80;;;2.90;;
7033;SDS011;3558;53.176;10.412;2023-11-21T05:09:17;3.87;;;3.13;;
7033;SDS011;3558;53.176;10.412;2023-11-21T05:11:42;3.77;;;3.37;;
7033;SDS011;3558;53.176;10.412;2023-11-21T05:14:08;4.10;;;3.30;;
7033;SDS011;3558;53.176;10.412;2023-11-21T05:16:34;4.00;;;3.60;;
7033;SDS011;3558;53.176;10.412;2023-11-21T05:19:00;4.28;;;3.35;;
7033;SDS011;3558;53.176;10.412;2023-11-21T05:21:26;3.78;;;3.28;;
7033;SDS011;3558;53.176;10.412;2023-11-21T05:23:52;3.78;;;3.25;;
7033;SDS011;3558;53.176;10.412;2023-11-21T05:26:17;3.63;;;3.20;;
7033;SDS011;3558;53.176;10.412;2023-11-21T05:28:43;4.07;;;3.20;;
7033;SDS011;3558;53.176;10.412;2023-11-21T05:31:08;4.13;;;3.50;;
7033;SDS011;3558;53.176;10.412;2023-11-21T05:33:35;3.70;;;3.30;;
7033;SDS011;3558;53.176;10.412;2023-11-21T05:36:01;4.00;;;3.45;;
7033;SDS011;3558;53.176;10.412;2023-11-21T05:38:27;4.10;;;3.30;;
7033;SDS011;3558;53.176;10.412;2023-11-21T05:40:52;3.80;;;3.22;;
7033;SDS011;3558;53.176;10.412;2023-11-21T05:43:17;4.60;;;3.40;;
7033;SDS011;3558;53.176;10.412;2023-11-21T05:45:43;4.03;;;3.03;;
7033;SDS011;3558;53.176;10.412;2023-11-21T05:48:08;3.83;;;3.10;;
7033;SDS011;3558;53.176;10.412;2023-11-21T05:50:34;3.87;;;3.03;;
7033;SDS011;3558;53.176;10.412;2023-11-21T05:52:59;3.25;;;2.95;;
7033;SDS011;3558;53.176;10.412;2023-11-21T05:55:25;3.60;;;3.05;;
7033;SDS011;3558;53.176;10.412;2023-11-21T05:57:51;3.80;;;3.20;;
7033;SDS011;3558;53.176;10.412;2023-11-21T06:00:16;4.03;;;3.13;;
7033;SDS011;3558;53.176;10.412;2023-11-21T06:02:45;3.33;;;3.00;;
7033;SDS011;3558;53.176;10.412;2023-11-21T06:05:11;3.75;;;2.90;;
7033;SDS011;3558;53.176;10.412;2023-11-21T06:07:37;3.63;;;2.90;;
7033;SDS011;3558;53.176;10.412;2023-11-21T06:10:04;4.00;;;3.10;;
7033;SDS011;3558;53.176;10.412;2023-11-21T06:12:36;3.47;;;3.00;;
7033;SDS011;3558;53.176;10.412;2023-11-21T06:15:03;3.10;;;2.80;;
7033;SDS011;3558;53.176;10.412;2023-11-21T06:17:30;4.13;;;3.00;;
7033;SDS011;3558;53.176;10.412;2023-11-21T06:19:56;3.53;;;2.92;;
7033;SDS011;3558;53.176;10.412;2023-11-21T06:22:22;3.60;;;3.10;;
7033;SDS011;3558;53.176;10.412;2023-11-21T06:24:47;3.58;;;3.28;;
7033;SDS011;3558;53.176;10.412;2023-11-21T06:27:13;3.10;;;2.77;;
7033;SDS011;3558;53.176;10.412;2023-11-21T06:29:38;3.83;;;2.90;;
7033;SDS011;3558;53.176;10.412;2023-11-21T06:32:04;4.13;;;2.83;;
7033;SDS011;3558;53.176;10.412;2023-11-21T06:34:30;3.90;;;3.08;;
7033;SDS011;3558;53.176;10.412;2023-11-21T06:36:56;3.22;;;2.92;;
7033;SDS011;3558;53.176;10.412;2023-11-21T06:39:21;3.38;;;2.85;;
7033;SDS011;3558;53.176;10.412;2023-11-21T06:41:48;4.03;;;2.90;;
7033;SDS011;3558;53.176;10.412;2023-11-21T06:44:14;3.10;;;2.77;;
7033;SDS011;3558;53.176;10.412;2023-11-21T06:46:40;3.53;;;2.90;;
7033;SDS011;3558;53.176;10.412;2023-11-21T06:49:07;3.42;;;3.10;;
7033;SDS011;3558;53.176;10.412;2023-11-21T06:51:33;3.60;;;3.07;;
7033;SDS011;3558;53.176;10.412;2023-11-21T06:53:58;3.40;;;2.87;;
7033;SDS011;3558;53.176;10.412;2023-11-21T06:56:24;3.78;;;3.03;;
7033;SDS011;3558;53.176;10.412;2023-11-21T06:58:50;4.20;;;2.90;;
7033;SDS011;3558;53.176;10.412;2023-11-21T07:01:18;3.67;;;2.90;;
7033;SDS011;3558;53.176;10.412;2023-11-21T07:03:44;3.53;;;2.73;;
7033;SDS011;3558;53.176;10.412;2023-11-21T07:06:10;3.20;;;2.90;;
7033;SDS011;3558;53.176;10.412;2023-11-21T07:08:36;3.13;;;2.63;;
7033;SDS011;3558;53.176;10.412;2023-11-21T07:11:02;3.08;;;2.65;;
7033;SDS011;3558;53.176;10.412;2023-11-21T07:13:31;3.25;;;2.70;;
7033;SDS011;3558;53.176;10.412;2023-11-21T07:15:57;3.40;;;3.03;;
7033;SDS011;3558;53.176;10.412;2023-11-21T07:18:23;3.33;;;2.80;;
7033;SDS011;3558;53.176;10.412;2023-11-21T07:20:49;3.45;;;2.90;;
7033;SDS011;3558;53.176;10.412;2023-11-21T07:23:15;3.33;;;2.72;;
7033;SDS011;3558;53.176;10.412;2023-11-21T07:25:40;3.50;;;2.90;;
7033;SDS011;3558;53.176;10.412;2023-11-21T07:28:08;3.65;;;2.97;;
7033;SDS011;3558;53.176;10.412;2023-11-21T07:30:33;3.22;;;2.83;;
7033;SDS011;3558;53.176;10.412;2023-11-21T07:32:59;3.85;;;3.08;;
7033;SDS011;3558;53.176;10.412;2023-11-21T07:35:24;3.20;;;2.90;;
7033;SDS011;3558;53.176;10.412;2023-11-21T07:37:50;4.22;;;3.08;;
7033;SDS011;3558;53.176;10.412;2023-11-21T07:40:15;3.40;;;3.07;;
7033;SDS011;3558;53.176;10.412;2023-11-21T07:42:41;3.25;;;2.92;;
7033;SDS011;3558;53.176;10.412;2023-11-21T07:45:07;3.88;;;3.17;;
7033;SDS011;3558;53.176;10.412;2023-11-21T07:47:33;4.57;;;3.42;;
7033;SDS011;3558;53.176;10.412;2023-11-21T07:49:59;4.18;;;3.15;;
7033;SDS011;3558;53.176;10.412;2023-11-21T07:52:25;3.60;;;3.25;;
7033;SDS011;3558;53.176;10.412;2023-11-21T07:54:50;3.50;;;3.20;;
7033;SDS011;3558;53.176;10.412;2023-11-21T07:57:16;4.07;;;3.23;;
7033;SDS011;3558;53.176;10.412;2023-11-21T07:59:41;4.33;;;3.40;;
7033;SDS011;3558;53.176;10.412;2023-11-21T08:02:07;3.53;;;3.22;;
7033;SDS011;3558;53.176;10.412;2023-11-21T08:04:33;4.27;;;3.20;;
7033;SDS011;3558;53.176;10.412;2023-11-21T08:07:00;3.67;;;3.22;;
7033;SDS011;3558;53.176;10.412;2023-11-21T08:09:26;3.90;;;3.43;;
7033;SDS011;3558;53.176;10.412;2023-11-21T08:11:52;4.40;;;3.60;;
7033;SDS011;3558;53.176;10.412;2023-11-21T08:14:18;4.13;;;3.22;;
7033;SDS011;3558;53.176;10.412;2023-11-21T08:16:43;3.90;;;3.40;;
7033;SDS011;3558;53.176;10.412;2023-11-21T08:19:09;4.57;;;3.53;;
7033;SDS011;3558;53.176;10.412;2023-11-21T08:21:36;4.63;;;3.50;;
7033;SDS011;3558;53.176;10.412;2023-11-21T08:24:02;3.97;;;3.53;;
7033;SDS011;3558;53.176;10.412;2023-11-21T08:26:29;3.78;;;3.13;;
7033;SDS011;3558;53.176;10.412;2023-11-21T08:28:55;4.05;;;3.22;;
7033;SDS011;3558;53.176;10.412;2023-11-21T08:31:25;4.05;;;3.42;;
7033;SDS011;3558;53.176;10.412;2023-11-21T08:33:50;4.53;;;3.45;;
7033;SDS011;3558;53.176;10.412;2023-11-21T08:36:16;3.83;;;3.30;;
7033;SDS011;3558;53.176;10.412;2023-11-21T08:38:41;3.90;;;3.37;;
7033;SDS011;3558;53.176;10.412;2023-11-21T08:41:07;5.43;;;3.63;;
7033;SDS011;3558;53.176;10.412;2023-11-21T08:43:35;4.77;;;3.80;;
7033;SDS011;3558;53.176;10.412;2023-11-21T08:46:04;4.13;;;3.50;;
7033;SDS011;3558;53.176;10.412;2023-11-21T08:48:31;4.57;;;3.75;;
7033;SDS011;3558;53.176;10.412;2023-11-21T08:50:56;4.33;;;3.93;;
7033;SDS011;3558;53.176;10.412;2023-11-21T08:53:22;3.87;;;3.40;;
7033;SDS011;3558;53.176;10.412;2023-11-21T08:55:47;4.30;;;3.80;;
7033;SDS011;3558;53.176;10.412;2023-11-21T08:58:14;4.25;;;3.53;;
7033;SDS011;3558;53.176;10.412;2023-11-21T09:00:40;4.38;;;3.50;;
7033;SDS011;3558;53.176;10.412;2023-11-21T09:03:06;3.90;;;3.47;;
7033;SDS011;3558;53.176;10.412;2023-11-21T09:05:33;4.78;;;4.00;;
7033;SDS011;3558;53.176;10.412;2023-11-21T09:08:02;4.22;;;3.83;;
7033;SDS011;3558;53.176;10.412;2023-11-21T09:10:27;4.55;;;3.80;;
7033;SDS011;3558;53.176;10.412;2023-11-21T09:12:53;5.47;;;3.60;;
7033;SDS011;3558;53.176;10.412;2023-11-21T09:15:18;4.70;;;3.60;;
7033;SDS011;3558;53.176;10.412;2023-11-21T09:17:45;3.80;;;3.40;;
7033;SDS011;3558;53.176;10.412;2023-11-21T09:20:11;4.97;;;3.88;;
7033;SDS011;3558;53.176;10.412;2023-11-21T09:22:36;4.28;;;3.58;;
7033;SDS011;3558;53.176;10.412;2023-11-21T09:25:02;4.53;;;3.70;;
7033;SDS011;3558;53.176;10.412;2023-11-21T09:27:30;4.95;;;3.90;;
7033;SDS011;3558;53.176;10.412;2023-11-21T09:29:56;4.55;;;3.75;;
7033;SDS011;3558;53.176;10.412;2023-11-21T09:32:23;4.28;;;3.60;;
7033;SDS011;3558;53.176;10.412;2023-11-21T09:34:49;4.63;;;3.72;;
7033;SDS011;3558;53.176;10.412;2023-11-21T09:37:15;4.50;;;3.80;;
7033;SDS011;3558;53.176;10.412;2023-11-21T09:39:41;3.90;;;3.50;;
7033;SDS011;3558;53.176;10.412;2023-11-21T09:42:11;4.28;;;3.45;;
7033;SDS011;3558;53.176;10.412;2023-11-21T09:44:48;3.92;;;3.30;;
7033;SDS011;3558;53.176;10.412;2023-11-21T09:47:22;3.88;;;3.53;;
7033;SDS011;3558;53.176;10.412;2023-11-21T09:49:48;3.87;;;3.40;;
7033;SDS011;3558;53.176;10.412;2023-11-21T09:52:22;4.07;;;3.30;;
7033;SDS011;3558;53.176;10.412;2023-11-21T09:54:51;4.40;;;3.45;;
7033;SDS011;3558;53.176;10.412;2023-11-21T09:57:19;4.20;;;3.60;;
7033;SDS011;3558;53.176;10.412;2023-11-21T09:59:46;4.63;;;3.67;;
7033;SDS011;3558;53.176;10.412;2023-11-21T10:02:15;4.63;;;3.47;;
7033;SDS011;3558;53.176;10.412;2023-11-21T10:04:43;4.63;;;3.40;;
7033;SDS011;3558;53.176;10.412;2023-11-21T10:07:10;4.70;;;3.60;;
7033;SDS011;3558;53.176;10.412;2023-11-21T10:09:37;5.03;;;3.70;;
7033;SDS011;3558;53.176;10.412;2023-11-21T10:12:03;4.53;;;3.08;;
7033;SDS011;3558;53.176;10.412;2023-11-21T10:14:33;5.00;;;3.55;;
7033;SDS011;3558;53.176;10.412;2023-11-21T10:16:59;3.97;;;3.03;;
7033;SDS011;3558;53.176;10.412;2023-11-21T10:19:27;4.68;;;3.45;;
7033;SDS011;3558;53.176;10.412;2023-11-21T10:21:53;4.22;;;3.45;;
7033;SDS011;3558;53.176;10.412;2023-11-21T10:24:20;4.15;;;3.20;;
7033;SDS011;3558;53.176;10.412;2023-11-21T10:26:45;4.30;;;3.40;;
7033;SDS011;3558;53.176;10.412;2023-11-21T10:29:13;4.40;;;3.30;;
7033;SDS011;3558;53.176;10.412;2023-11-21T10:31:41;3.70;;;3.10;;
7033;SDS011;3558;53.176;10.412;2023-11-21T10:34:13;4.05;;;3.30;;
7033;SDS011;3558;53.176;10.412;2023-11-21T10:36:40;4.00;;;2.92;;
7033;SDS011;3558;53.176;10.412;2023-11-21T10:39:06;4.43;;;3.33;;
7033;SDS011;3558;53.176;10.412;2023-11-21T10:41:31;4.03;;;3.20;;
7033;SDS011;3558;53.176;10.412;2023-11-21T10:43:57;4.07;;;3.28;;
7033;SDS011;3558;53.176;10.412;2023-11-21T10:46:23;3.90;;;3.20;;
7033;SDS011;3558;53.176;10.412;2023-11-21T10:48:53;3.58;;;2.97;;
7033;SDS011;3558;53.176;10.412;2023-11-21T10:51:21;3.90;;;3.17;;
7033;SDS011;3558;53.176;10.412;2023-11-21T10:53:46;4.43;;;3.40;;
7033;SDS011;3558;53.176;10.412;2023-11-21T10:56:14;3.60;;;2.83;;
7033;SDS011;3558;53.176;10.412;2023-11-21T10:58:44;3.42;;;3.00;;
7033;SDS011;3558;53.176;10.412;2023-11-21T11:01:10;3.70;;;2.83;;
7033;SDS011;3558;53.176;10.412;2023-11-21T11:03:39;3.17;;;2.70;;
7033;SDS011;3558;53.176;10.412;2023-11-21T11:06:06;3.35;;;2.72;;
7033;SDS011;3558;53.176;10.412;2023-11-21T11:08:36;3.20;;;2.80;;
7033;SDS011;3558;53.176;10.412;2023-11-21T11:11:02;3.60;;;2.80;;
7033;SDS011;3558;53.176;10.412;2023-11-21T11:13:29;3.97;;;2.83;;
7033;SDS011;3558;53.176;10.412;2023-11-21T11:15:57;3.38;;;2.80;;
7033;SDS011;3558;53.176;10.412;2023-11-21T11:18:27;3.42;;;2.42;;
7033;SDS011;3558;53.176;10.412;2023-11-21T11:20:54;3.22;;;2.80;;
7033;SDS011;3558;53.176;10.412;2023-11-21T11:23:38;3.08;;;2.53;;
7033;SDS011;3558;53.176;10.412;2023-11-21T11:32:13;2.90;;;2.38;;
7033;SDS011;3558;53.176;10.412;2023-11-21T11:34:53;3.13;;;2.38;;
7033;SDS011;3558;53.176;10.412;2023-11-21T11:37:26;2.90;;;2.37;;
7033;SDS011;3558;53.176;10.412;2023-11-21T11:39:52;3.47;;;2.20;;
7033;SDS011;3558;53.176;10.412;2023-11-21T11:42:19;3.17;;;2.50;;
7033;SDS011;3558;53.176;10.412;2023-11-21T11:44:47;3.10;;;2.33;;
7033;SDS011;3558;53.176;10.412;2023-11-21T11:47:18;2.90;;;2.20;;
7033;SDS011;3558;53.176;10.412;2023-11-21T11:50:04;3.47;;;2.50;;
7033;SDS011;3558;53.176;10.412;2023-11-21T11:52:38;2.92;;;2.00;;
7033;SDS011;3558;53.176;10.412;2023-11-21T11:55:08;2.90;;;2.17;;
7033;SDS011;3558;53.176;10.412;2023-11-21T11:57:35;2.50;;;2.20;;
7033;SDS011;3558;53.176;10.412;2023-11-21T12:02:35;3.00;;;2.40;;
7033;SDS011;3558;53.176;10.412;2023-11-21T12:05:02;3.20;;;2.27;;
7033;SDS011;3558;53.176;10.412;2023-11-21T12:07:44;2.97;;;2.10;;
7033;SDS011;3558;53.176;10.412;2023-11-21T12:10:18;2.60;;;2.28;;
7033;SDS011;3558;53.176;10.412;2023-11-21T12:12:48;3.03;;;2.38;;
7033;SDS011;3558;53.176;10.412;2023-11-21T12:15:14;4.32;;;2.47;;
7033;SDS011;3558;53.176;10.412;2023-11-21T12:17:41;3.10;;;2.23;;
7033;SDS011;3558;53.176;10.412;2023-11-21T12:20:08;3.33;;;2.20;;
7033;SDS011;3558;53.176;10.412;2023-11-21T12:22:43;3.35;;;2.10;;
7033;SDS011;3558;53.176;10.412;2023-11-21T12:25:09;2.53;;;2.13;;
7033;SDS011;3558;53.176;10.412;2023-11-21T12:27:37;2.80;;;2.10;;
7033;SDS011;3558;53.176;10.412;2023-11-21T12:30:03;2.70;;;2.20;;
7033;SDS011;3558;53.176;10.412;2023-11-21T12:32:29;3.17;;;2.30;;
7033;SDS011;3558;53.176;10.412;2023-11-21T12:34:55;2.40;;;2.00;;
7033;SDS011;3558;53.176;10.412;2023-11-21T12:37:20;3.00;;;2.10;;
7033;SDS011;3558;53.176;10.412;2023-11-21T12:39:47;2.60;;;2.00;;
7033;SDS011;3558;53.176;10.412;2023-11-21T12:42:12;3.60;;;2.00;;
7033;SDS011;3558;53.176;10.412;2023-11-21T12:44:38;3.00;;;2.30;;
7033;SDS011;3558;53.176;10.412;2023-11-21T12:47:06;3.38;;;2.25;;
7033;SDS011;3558;53.176;10.412;2023-11-21T12:49:32;3.15;;;2.30;;
7033;SDS011;3558;53.176;10.412;2023-11-21T12:51:59;2.83;;;2.13;;
7033;SDS011;3558;53.176;10.412;2023-11-21T12:54:24;3.30;;;2.30;;
7033;SDS011;3558;53.176;10.412;2023-11-21T12:56:50;2.90;;;2.00;;
7033;SDS011;3558;53.176;10.412;2023-11-21T12:59:15;3.40;;;2.17;;
7033;SDS011;3558;53.176;10.412;2023-11-21T13:01:43;3.97;;;2.47;;
7033;SDS011;3558;53.176;10.412;2023-11-21T13:04:08;2.42;;;2.10;;
7033;SDS011;3558;53.176;10.412;2023-11-21T13:06:35;2.45;;;2.00;;
7033;SDS011;3558;53.176;10.412;2023-11-21T13:09:05;2.40;;;2.05;;
7033;SDS011;3558;53.176;10.412;2023-11-21T13:11:35;2.30;;;1.97;;
7033;SDS011;3558;53.176;10.412;2023-11-21T13:14:01;3.03;;;2.20;;
7033;SDS011;3558;53.176;10.412;2023-11-21T13:16:28;3.22;;;2.25;;
7033;SDS011;3558;53.176;10.412;2023-11-21T13:18:55;2.85;;;2.20;;
7033;SDS011;3558;53.176;10.412;2023-11-21T13:21:20;3.10;;;1.98;;
7033;SDS011;3558;53.176;10.412;2023-11-21T13:23:47;2.55;;;1.92;;
7033;SDS011;3558;53.176;10.412;2023-11-21T13:26:15;2.70;;;2.15;;
7033;SDS011;3558;53.176;10.412;2023-11-21T13:28:40;2.95;;;2.30;;
7033;SDS011;3558;53.176;10.412;2023-11-21T13:31:11;2.47;;;2.20;;
7033;SDS011;3558;53.176;10.412;2023-11-21T13:33:56;3.00;;;2.47;;
7033;SDS011;3558;53.176;10.412;2023-11-21T13:36:24;2.80;;;2.30;;
7033;SDS011;3558;53.176;10.412;2023-11-21T13:38:50;2.83;;;2.10;;
7033;SDS011;3558;53.176;10.412;2023-11-21T13:41:17;2.55;;;2.20;;
7033;SDS011;3558;53.176;10.412;2023-11-21T13:43:43;2.38;;;2.17;;
7033;SDS011;3558;53.176;10.412;2023-11-21T13:46:17;3.10;;;2.55;;
7033;SDS011;3558;53.176;10.412;2023-11-21T13:48:46;2.80;;;2.28;;
7033;SDS011;3558;53.176;10.412;2023-11-21T13:51:18;2.53;;;2.03;;
7033;SDS011;3558;53.176;10.412;2023-11-21T13:53:45;2.75;;;2.30;;
7033;SDS011;3558;53.176;10.412;2023-11-21T13:56:17;2.60;;;2.20;;
7033;SDS011;3558;53.176;10.412;2023-11-21T13:58:48;4.07;;;2.33;;
7033;SDS011;3558;53.176;10.412;2023-11-21T14:01:18;2.75;;;2.10;;
7033;SDS011;3558;53.176;10.412;2023-11-21T14:03:50;2.90;;;2.30;;
7033;SDS011;3558;53.176;10.412;2023-11-21T14:06:21;2.92;;;2.33;;
7033;SDS011;3558;53.176;10.412;2023-11-21T14:08:52;2.85;;;2.50;;
7033;SDS011;3558;53.176;10.412;2023-11-21T14:11:21;3.20;;;2.20;;
7033;SDS011;3558;53.176;10.412;2023-11-21T14:13:47;3.03;;;2.40;;
7033;SDS011;3558;53.176;10.412;2023-11-21T14:16:13;2.83;;;2.22;;
7033;SDS011;3558;53.176;10.412;2023-11-21T14:18:39;2.80;;;2.30;;
7033;SDS011;3558;53.176;10.412;2023-11-21T14:21:17;2.35;;;2.10;;
7033;SDS011;3558;53.176;10.412;2023-11-21T14:23:43;2.72;;;2.30;;
7033;SDS011;3558;53.176;10.412;2023-11-21T14:26:10;3.40;;;2.33;;
7033;SDS011;3558;53.176;10.412;2023-11-21T14:28:39;2.38;;;1.95;;
7033;SDS011;3558;53.176;10.412;2023-11-21T14:31:04;3.10;;;2.50;;
7033;SDS011;3558;53.176;10.412;2023-11-21T14:33:30;2.93;;;2.20;;
7033;SDS011;3558;53.176;10.412;2023-11-21T14:35:55;3.72;;;2.33;;
7033;SDS011;3558;53.176;10.412;2023-11-21T14:38:22;3.40;;;2.25;;
7033;SDS011;3558;53.176;10.412;2023-11-21T14:40:48;2.87;;;2.20;;
7033;SDS011;3558;53.176;10.412;2023-11-21T14:43:14;3.58;;;2.38;;
7033;SDS011;3558;53.176;10.412;2023-11-21T14:45:40;2.97;;;2.40;;
7033;SDS011;3558;53.176;10.412;2023-11-21T14:48:06;2.97;;;2.50;;
7033;SDS011;3558;53.176;10.412;2023-11-21T14:50:33;2.60;;;2.22;;
7033;SDS011;3558;53.176;10.412;2023-11-21T14:53:34;2.65;;;2.17;;
7033;SDS011;3558;53.176;10.412;2023-11-21T14:56:21;2.90;;;2.30;;
7033;SDS011;3558;53.176;10.412;2023-11-21T14:58:56;2.60;;;2.10;;
7033;SDS011;3558;53.176;10.412;2023-11-21T15:01:23;2.95;;;2.30;;
7033;SDS011;3558;53.176;10.412;2023-11-21T15:04:07;2.70;;;2.30;;
7033;SDS011;3558;53.176;10.412;2023-11-21T15:06:39;2.97;;;2.03;;
7033;SDS011;3558;53.176;10.412;2023-11-21T15:09:07;3.13;;;2.35;;
7033;SDS011;3558;53.176;10.412;2023-11-21T15:11:33;3.35;;;2.50;;
7033;SDS011;3558;53.176;10.412;2023-11-21T15:13:59;2.65;;;2.30;;
7033;SDS011;3558;53.176;10.412;2023-11-21T15:16:25;2.75;;;2.40;;
7033;SDS011;3558;53.176;10.412;2023-11-21T15:18:54;3.00;;;2.33;;
7033;SDS011;3558;53.176;10.412;2023-11-21T15:21:20;3.08;;;2.47;;
7033;SDS011;3558;53.176;10.412;2023-11-21T15:23:47;3.20;;;2.55;;
7033;SDS011;3558;53.176;10.412;2023-11-21T15:26:13;3.10;;;2.20;;
7033;SDS011;3558;53.176;10.412;2023-11-21T15:28:38;2.83;;;2.25;;
7033;SDS011;3558;53.176;10.412;2023-11-21T15:31:04;3.30;;;2.70;;
7033;SDS011;3558;53.176;10.412;2023-11-21T15:33:30;3.53;;;2.40;;
7033;SDS011;3558;53.176;10.412;2023-11-21T15:35:56;3.10;;;2.50;;
7033;SDS011;3558;53.176;10.412;2023-11-21T15:38:22;3.13;;;2.53;;
7033;SDS011;3558;53.176;10.412;2023-11-21T15:40:48;3.47;;;2.60;;
7033;SDS011;3558;53.176;10.412;2023-11-21T15:43:15;3.78;;;2.78;;
7033;SDS011;3558;53.176;10.412;2023-11-21T15:45:40;3.23;;;2.73;;
7033;SDS011;3558;53.176;10.412;2023-11-21T15:48:06;3.03;;;2.63;;
7033;SDS011;3558;53.176;10.412;2023-11-21T15:50:31;4.70;;;3.00;;
7033;SDS011;3558;53.176;10.412;2023-11-21T15:52:57;3.57;;;2.80;;
7033;SDS011;3558;53.176;10.412;2023-11-21T15:55:24;4.78;;;3.42;;
7033;SDS011;3558;53.176;10.412;2023-11-21T15:57:50;3.78;;;2.80;;
7033;SDS011;3558;53.176;10.412;2023-11-21T16:00:16;4.38;;;2.92;;
7033;SDS011;3558;53.176;10.412;2023-11-21T16:02:45;4.30;;;3.10;;
7033;SDS011;3558;53.176;10.412;2023-11-21T16:05:11;3.72;;;3.03;;
7033;SDS011;3558;53.176;10.412;2023-11-21T16:07:39;4.03;;;3.20;;
7033;SDS011;3558;53.176;10.412;2023-11-21T16:10:06;3.80;;;2.85;;
7033;SDS011;3558;53.176;10.412;2023-11-21T16:12:35;3.72;;;2.80;;
7033;SDS011;3558;53.176;10.412;2023-11-21T16:15:01;4.50;;;2.90;;
7033;SDS011;3558;53.176;10.412;2023-11-21T16:17:32;4.45;;;3.03;;
7033;SDS011;3558;53.176;10.412;2023-11-21T16:19:59;5.03;;;3.20;;
7033;SDS011;3558;53.176;10.412;2023-11-21T16:22:25;3.45;;;2.83;;
7033;SDS011;3558;53.176;10.412;2023-11-21T16:24:52;4.35;;;3.17;;
7033;SDS011;3558;53.176;10.412;2023-11-21T16:27:18;3.70;;;2.90;;
7033;SDS011;3558;53.176;10.412;2023-11-21T16:29:44;4.90;;;3.10;;
7033;SDS011;3558;53.176;10.412;2023-11-21T16:32:10;4.03;;;2.97;;
7033;SDS011;3558;53.176;10.412;2023-11-21T16:34:36;3.47;;;2.90;;
7033;SDS011;3558;53.176;10.412;2023-11-21T16:37:02;5.90;;;3.03;;
7033;SDS011;3558;53.176;10.412;2023-11-21T16:39:29;3.70;;;2.75;;
7033;SDS011;3558;53.176;10.412;2023-11-21T16:41:55;3.47;;;2.80;;
7033;SDS011;3558;53.176;10.412;2023-11-21T16:44:21;4.70;;;2.77;;
7033;SDS011;3558;53.176;10.412;2023-11-21T16:46:47;2.80;;;2.40;;
7033;SDS011;3558;53.176;10.412;2023-11-21T16:49:15;4.13;;;2.78;;
7033;SDS011;3558;53.176;10.412;2023-11-21T16:51:44;3.95;;;2.90;;
7033;SDS011;3558;53.176;10.412;2023-11-21T16:54:09;3.92;;;3.10;;
7033;SDS011;3558;53.176;10.412;2023-11-21T16:56:35;4.57;;;3.30;;
7033;SDS011;3558;53.176;10.412;2023-11-21T16:59:01;4.40;;;3.20;;
7033;SDS011;3558;53.176;10.412;2023-11-21T17:01:26;4.50;;;3.20;;
7033;SDS011;3558;53.176;10.412;2023-11-21T17:03:57;3.90;;;3.10;;
7033;SDS011;3558;53.176;10.412;2023-11-21T17:06:23;4.53;;;3.27;;
7033;SDS011;3558;53.176;10.412;2023-11-21T17:08:51;4.10;;;3.13;;
7033;SDS011;3558;53.176;10.412;2023-11-21T17:11:20;4.38;;;3.35;;
7033;SDS011;3558;53.176;10.412;2023-11-21T17:13:46;4.38;;;3.35;;
7033;SDS011;3558;53.176;10.412;2023-11-21T17:16:11;4.30;;;3.20;;
7033;SDS011;3558;53.176;10.412;2023-11-21T17:18:37;4.37;;;3.10;;
7033;SDS011;3558;53.176;10.412;2023-11-21T17:21:02;4.27;;;3.10;;
7033;SDS011;3558;53.176;10.412;2023-11-21T17:23:29;4.13;;;3.00;;
7033;SDS011;3558;53.176;10.412;2023-11-21T17:25:55;4.13;;;2.88;;
7033;SDS011;3558;53.176;10.412;2023-11-21T17:28:20;4.45;;;3.10;;
7033;SDS011;3558;53.176;10.412;2023-11-21T17:30:46;3.75;;;3.03;;
7033;SDS011;3558;53.176;10.412;2023-11-21T17:33:12;4.22;;;2.90;;
7033;SDS011;3558;53.176;10.412;2023-11-21T17:35:40;3.35;;;2.60;;
7033;SDS011;3558;53.176;10.412;2023-11-21T17:38:06;3.27;;;2.53;;
7033;SDS011;3558;53.176;10.412;2023-11-21T17:40:32;3.30;;;2.17;;
7033;SDS011;3558;53.176;10.412;2023-11-21T17:42:59;3.20;;;2.58;;
7033;SDS011;3558;53.176;10.412;2023-11-21T17:45:25;3.35;;;2.50;;
7033;SDS011;3558;53.176;10.412;2023-11-21T17:47:50;2.47;;;2.10;;
7033;SDS011;3558;53.176;10.412;2023-11-21T17:50:16;2.63;;;2.00;;
7033;SDS011;3558;53.176;10.412;2023-11-21T17:52:41;3.35;;;2.05;;
7033;SDS011;3558;53.176;10.412;2023-11-21T17:55:09;2.63;;;2.05;;
7033;SDS011;3558;53.176;10.412;2023-11-21T17:57:35;2.40;;;2.00;;
7033;SDS011;3558;53.176;10.412;2023-11-21T18:00:01;2.67;;;1.90;;
7033;SDS011;3558;53.176;10.412;2023-11-21T18:02:30;2.15;;;1.80;;
7033;SDS011;3558;53.176;10.412;2023-11-21T18:04:56;2.45;;;1.88;;
7033;SDS011;3558;53.176;10.412;2023-11-21T18:07:24;2.83;;;2.25;;
7033;SDS011;3558;53.176;10.412;2023-11-21T18:09:50;2.70;;;2.10;;
7033;SDS011;3558;53.176;10.412;2023-11-21T18:12:16;2.37;;;2.10;;
7033;SDS011;3558;53.176;10.412;2023-11-21T18:14:43;2.42;;;2.00;;
7033;SDS011;3558;53.176;10.412;2023-11-21T18:17:13;3.67;;;2.30;;
7033;SDS011;3558;53.176;10.412;2023-11-21T18:19:41;2.30;;;2.10;;
7033;SDS011;3558;53.176;10.412;2023-11-21T18:22:07;2.45;;;2.20;;
7033;SDS011;3558;53.176;10.412;2023-11-21T18:24:33;2.70;;;2.23;;
7033;SDS011;3558;53.176;10.412;2023-11-21T18:26:59;2.80;;;2.30;;
7033;SDS011;3558;53.176;10.412;2023-11-21T18:29:24;2.20;;;1.93;;
7033;SDS011;3558;53.176;10.412;2023-11-21T18:31:50;2.72;;;2.22;;
7033;SDS011;3558;53.176;10.412;2023-11-21T18:34:16;2.47;;;2.00;;
7033;SDS011;3558;53.176;10.412;2023-11-21T18:36:43;3.03;;;2.17;;
7033;SDS011;3558;53.176;10.412;2023-11-21T18:39:09;2.45;;;1.92;;
7033;SDS011;3558;53.176;10.412;2023-11-21T18:41:40;2.10;;;1.90;;
7033;SDS011;3558;53.176;10.412;2023-11-21T18:44:07;3.13;;;2.00;;
7033;SDS011;3558;53.176;10.412;2023-11-21T18:46:36;2.20;;;2.00;;
7033;SDS011;3558;53.176;10.412;2023-11-21T18:49:05;2.75;;;1.77;;
7033;SDS011;3558;53.176;10.412;2023-11-21T18:51:31;2.83;;;2.08;;
7033;SDS011;3558;53.176;10.412;2023-11-21T18:53:57;2.92;;;1.95;;